Time;durP1;ratioP1;P1;durP2;ratioP2;P2;SDS_P1;SDS_P2;PMS_P1;PMS_P2;Temp;Humidity;BMP_temperature;BMP_pressure;BME280_temperature;BME280_humidity;BME280_pressure;Samples;Min_cycle;Max_cycle;Signal;HPM_P1;HPM_P2
2022/12/05 00:00:31;;;;;;;73.38;28.85;;;3.80;99.90;;;;;;5073810;28;20244;-77
2022/12/05 00:02:57;;;;;;;70.35;28.98;;;3.90;99.90;;;;;;5075011;28;20641;-77
2022/12/05 00:05:23;;;;;;;77.13;27.70;;;4.00;99.90;;;;;;5074906;28;20227;-77
2022/12/05 00:07:49;;;;;;;67.20;29.00;;;3.90;99.90;;;;;;5074891;28;20683;-79
2022/12/05 00:10:14;;;;;;;64.55;27.33;;;3.90;99.90;;;;;;5074805;28;20182;-78
2022/12/05 00:12:40;;;;;;;80.93;28.30;;;3.90;99.90;;;;;;5074606;28;20841;-80
2022/12/05 00:15:08;;;;;;;72.13;27.88;;;3.90;99.90;;;;;;5074555;28;20182;-78
2022/12/05 00:17:34;;;;;;;73.32;27.40;;;3.80;99.90;;;;;;5074937;28;20249;-78
2022/12/05 00:19:59;;;;;;;69.07;25.92;;;3.80;99.90;;;;;;5074808;28;20277;-78
2022/12/05 00:22:25;;;;;;;71.57;27.70;;;3.70;99.90;;;;;;5074487;28;20292;-78
2022/12/05 00:24:51;;;;;;;76.35;27.65;;;3.70;99.90;;;;;;5074508;28;20167;-79
2022/12/05 00:27:17;;;;;;;58.88;25.25;;;3.80;99.90;;;;;;5074635;28;20163;-78
2022/12/05 00:29:42;;;;;;;74.72;26.80;;;3.80;99.90;;;;;;5074164;28;20163;-78
2022/12/05 00:32:08;;;;;;;64.78;24.65;;;3.70;99.90;;;;;;5073291;28;20254;-78
2022/12/05 00:34:33;;;;;;;69.65;26.33;;;3.90;99.90;;;;;;5074232;28;20168;-83
2022/12/05 00:36:59;;;;;;;69.90;26.02;;;3.90;99.90;;;;;;5074585;28;20261;-78
2022/12/05 00:39:24;;;;;;;67.60;24.58;;;3.70;99.90;;;;;;5087159;22;20218;-78
2022/12/05 00:41:50;;;;;;;73.00;27.48;;;3.80;99.90;;;;;;5074568;28;20206;-78
2022/12/05 00:44:15;;;;;;;68.57;26.10;;;3.90;99.90;;;;;;5072595;28;20500;-78
2022/12/05 00:46:42;;;;;;;53.40;24.95;;;3.90;99.90;;;;;;5073031;28;20984;-78
2022/12/05 00:49:09;;;;;;;66.75;23.50;;;3.80;99.90;;;;;;5072914;28;20253;-78
2022/12/05 00:51:38;;;;;;;62.15;23.45;;;3.90;99.90;;;;;;5074237;28;20190;-77
2022/12/05 00:54:11;;;;;;;61.55;23.90;;;3.90;99.90;;;;;;5074419;28;20163;-78
2022/12/05 00:56:37;;;;;;;61.33;25.60;;;4.00;99.90;;;;;;5074278;28;20167;-78
2022/12/05 00:59:03;;;;;;;57.17;22.60;;;4.10;99.90;;;;;;5083404;28;20166;-77
2022/12/05 01:01:36;;;;;;;57.05;22.38;;;4.30;99.90;;;;;;5089880;28;20297;-78
2022/12/05 01:04:05;;;;;;;56.97;23.27;;;4.30;99.90;;;;;;5094831;28;20158;-77
2022/12/05 01:06:31;;;;;;;61.10;23.50;;;4.30;99.90;;;;;;5113902;28;20174;-78
2022/12/05 01:08:57;;;;;;;58.70;23.27;;;4.30;99.90;;;;;;5098886;28;20182;-76
2022/12/05 01:11:24;;;;;;;57.78;23.13;;;4.20;99.90;;;;;;5096587;28;20238;-78
2022/12/05 01:13:50;;;;;;;62.78;23.88;;;4.00;99.90;;;;;;5095343;28;20162;-78
2022/12/05 01:16:22;;;;;;;51.42;22.35;;;3.90;99.90;;;;;;5092884;28;20169;-78
2022/12/05 01:18:48;;;;;;;61.58;23.63;;;3.70;99.90;;;;;;5094276;28;20291;-78
2022/12/05 01:21:14;;;;;;;56.08;22.85;;;3.70;99.90;;;;;;5095405;28;20253;-77
2022/12/05 01:23:39;;;;;;;65.18;23.48;;;3.80;99.90;;;;;;5093814;28;20233;-77
2022/12/05 01:26:08;;;;;;;70.45;23.85;;;3.80;99.90;;;;;;5092775;28;20206;-78
2022/12/05 01:28:34;;;;;;;59.08;23.20;;;3.90;99.90;;;;;;5079676;28;20173;-78
2022/12/05 01:31:05;;;;;;;55.60;21.95;;;4.00;99.90;;;;;;5072187;28;20195;-78
2022/12/05 01:33:31;;;;;;;61.92;23.30;;;4.00;99.90;;;;;;5073374;28;20174;-78
2022/12/05 01:35:57;;;;;;;74.65;23.65;;;3.80;99.90;;;;;;5072147;28;20181;-78
2022/12/05 01:38:22;;;;;;;65.55;25.80;;;3.70;99.90;;;;;;5072788;28;20171;-78
2022/12/05 01:40:48;;;;;;;64.80;25.35;;;3.80;99.90;;;;;;5072857;28;20198;-78
2022/12/05 01:43:17;;;;;;;52.75;22.30;;;3.80;99.90;;;;;;5072929;28;20657;-78
2022/12/05 01:45:45;;;;;;;60.50;24.02;;;3.90;99.90;;;;;;5073235;28;20220;-78
2022/12/05 01:48:18;;;;;;;51.90;22.80;;;4.10;99.90;;;;;;5073124;28;20155;-77
2022/12/05 01:50:45;;;;;;;68.15;26.02;;;4.20;99.90;;;;;;5088466;28;20194;-77
2022/12/05 01:53:11;;;;;;;55.03;24.30;;;4.10;99.90;;;;;;5073122;28;20170;-78
2022/12/05 01:55:37;;;;;;;66.97;24.27;;;4.30;99.90;;;;;;5072964;28;20170;-78
2022/12/05 01:58:05;;;;;;;59.45;24.88;;;4.10;99.90;;;;;;5071355;28;20163;-78
2022/12/05 02:00:31;;;;;;;65.22;23.92;;;4.00;99.90;;;;;;5072291;28;20218;-77
2022/12/05 02:03:00;;;;;;;63.63;24.80;;;4.20;99.90;;;;;;5072617;28;20177;-78
2022/12/05 02:05:31;;;;;;;56.15;23.85;;;4.40;99.90;;;;;;5072896;28;20261;-77
2022/12/05 02:07:59;;;;;;;62.47;25.48;;;4.50;99.90;;;;;;5072572;28;20167;-78
2022/12/05 02:10:29;;;;;;;69.05;23.88;;;4.60;99.90;;;;;;5072364;28;20186;-78
2022/12/05 02:13:02;;;;;;;75.95;25.73;;;4.70;99.90;;;;;;5071077;28;20189;-77
2022/12/05 02:15:45;;;;;;;59.00;23.65;;;4.70;99.90;;;;;;5071174;28;20177;-78
2022/12/05 02:18:29;;;;;;;57.00;23.70;;;4.70;99.90;;;;;;5078235;28;20162;-80
2022/12/05 02:21:09;;;;;;;71.50;25.88;;;4.80;99.90;;;;;;5078348;28;20238;-79
2022/12/05 02:24:15;;;;;;;61.30;25.17;;;4.60;99.90;;;;;;5075725;28;20167;-79
2022/12/05 02:27:17;;;;;;;71.97;24.83;;;4.60;99.90;;;;;;5072445;28;20673;-78
2022/12/05 02:29:54;;;;;;;63.50;23.98;;;4.60;99.90;;;;;;5071940;28;20224;-79
2022/12/05 02:32:42;;;;;;;59.38;23.48;;;4.40;99.90;;;;;;5072161;28;20248;-80
2022/12/05 02:35:15;;;;;;;61.63;22.98;;;4.00;99.90;;;;;;5072297;28;20537;-79
2022/12/05 02:37:56;;;;;;;68.55;25.38;;;3.80;99.90;;;;;;5072024;28;20658;-80
2022/12/05 02:40:42;;;;;;;64.10;24.05;;;4.10;99.90;;;;;;5080002;28;20206;-78
2022/12/05 02:43:17;;;;;;;62.22;24.60;;;4.00;99.90;;;;;;5078127;28;20672;-80
2022/12/05 02:45:48;;;;;;;68.40;24.77;;;4.10;99.90;;;;;;5077946;28;20639;-78
2022/12/05 02:48:17;;;;;;;63.42;24.35;;;4.30;99.90;;;;;;5077624;28;20212;-78
2022/12/05 02:50:44;;;;;;;61.97;25.63;;;4.10;99.90;;;;;;5076021;28;20186;-79
2022/12/05 02:53:13;;;;;;;68.78;26.95;;;4.20;99.90;;;;;;5098863;28;20226;-78
2022/12/05 02:55:43;;;;;;;72.43;26.65;;;4.20;99.90;;;;;;5089282;28;20174;-80
2022/12/05 02:58:17;;;;;;;70.40;27.02;;;4.30;99.90;;;;;;5090307;28;20158;-81
2022/12/05 03:00:46;;;;;;;58.35;23.17;;;4.20;99.90;;;;;;5086868;28;20270;-79
2022/12/05 03:03:18;;;;;;;68.88;24.13;;;4.00;99.90;;;;;;5079693;28;20189;-78
2022/12/05 03:06:05;;;;;;;66.28;25.80;;;3.90;99.90;;;;;;5080108;28;20181;-78
2022/12/05 03:08:38;;;;;;;68.75;25.77;;;4.10;99.90;;;;;;5081466;28;20163;-79
2022/12/05 03:11:05;;;;;;;65.47;27.05;;;4.40;99.90;;;;;;5080007;28;20647;-79
2022/12/05 03:13:39;;;;;;;70.05;25.75;;;4.30;99.90;;;;;;5077809;28;20262;-79
2022/12/05 03:16:16;;;;;;;70.20;25.67;;;4.50;99.90;;;;;;5078813;28;20223;-78
2022/12/05 03:18:49;;;;;;;73.78;26.00;;;4.60;99.90;;;;;;5076515;28;20639;-78
2022/12/05 03:21:37;;;;;;;66.97;25.23;;;4.60;99.90;;;;;;5073787;28;20214;-79
2022/12/05 03:24:10;;;;;;;61.78;23.85;;;4.70;99.90;;;;;;5089573;28;20174;-78
2022/12/05 03:27:13;;;;;;;63.72;24.70;;;4.60;99.90;;;;;;5074935;28;20513;-78
2022/12/05 03:29:45;;;;;;;67.47;24.88;;;4.50;99.90;;;;;;5075626;28;20166;-80
2022/12/05 03:32:17;;;;;;;79.43;25.33;;;4.40;99.90;;;;;;5057490;28;20696;-79
2022/12/05 03:35:18;;;;;;;79.25;26.50;;;4.30;99.90;;;;;;5062138;28;20258;-79
2022/12/05 03:38:10;;;;;;;69.63;25.58;;;4.50;99.90;;;;;;5063633;28;20167;-78
2022/12/05 03:40:59;;;;;;;65.72;24.65;;;4.40;99.90;;;;;;5065610;28;20226;-78
2022/12/05 03:44:05;;;;;;;75.78;25.17;;;4.70;99.90;;;;;;5062051;28;20191;-79
2022/12/05 03:46:36;;;;;;;68.55;26.40;;;4.80;99.90;;;;;;5018922;28;20210;-79
2022/12/05 03:49:20;;;;;;;65.07;21.50;;;4.70;99.90;;;;;;5059457;28;20261;-79
2022/12/05 03:52:25;;;;;;;52.42;23.27;;;4.50;99.90;;;;;;5074681;28;20190;-79
2022/12/05 03:54:56;;;;;;;50.08;21.45;;;4.40;99.90;;;;;;5016611;28;20198;-79
2022/12/05 03:57:28;;;;;;;55.50;22.50;;;4.50;99.90;;;;;;5058207;28;20176;-79
2022/12/05 04:00:14;;;;;;;51.05;22.80;;;4.60;99.90;;;;;;5059649;28;20167;-78
2022/12/05 04:02:46;;;;;;;50.47;20.85;;;4.50;99.90;;;;;;5057807;28;20199;-78
2022/12/05 04:05:20;;;;;;;60.53;20.52;;;4.40;99.90;;;;;;5065772;28;20205;-79
2022/12/05 04:07:50;;;;;;;49.38;21.80;;;4.50;99.90;;;;;;5062936;28;20168;-79
2022/12/05 04:10:22;;;;;;;58.67;23.60;;;4.60;99.90;;;;;;5067217;28;20656;-79
2022/12/05 04:12:51;;;;;;;48.17;20.83;;;4.50;99.90;;;;;;5066892;28;20159;-78
2022/12/05 04:15:23;;;;;;;43.72;21.38;;;4.40;99.90;;;;;;5061813;28;20170;-78
2022/12/05 04:17:52;;;;;;;53.78;22.35;;;4.50;99.90;;;;;;5064966;28;20164;-78
2022/12/05 04:23:16;;;;;;;57.35;21.00;;;4.70;99.90;;;;;;5060544;28;20186;-78
2022/12/05 04:26:12;;;;;;;45.03;19.77;;;4.70;99.90;;;;;;5059496;28;20163;-79
2022/12/05 04:28:55;;;;;;;51.45;20.95;;;4.60;99.90;;;;;;5059576;28;20160;-78
2022/12/05 04:31:28;;;;;;;52.53;20.35;;;4.70;99.90;;;;;;5057354;28;20187;-79
2022/12/05 04:34:04;;;;;;;45.90;21.15;;;4.70;99.90;;;;;;5054389;28;20203;-79
2022/12/05 04:36:49;;;;;;;37.35;19.17;;;4.50;99.90;;;;;;5054566;28;20726;-78
2022/12/05 04:39:20;;;;;;;54.30;22.50;;;4.50;99.90;;;;;;5054330;28;20544;-79
2022/12/05 04:42:16;;;;;;;51.13;22.23;;;4.60;99.90;;;;;;5054242;28;20207;-80
2022/12/05 04:45:08;;;;;;;46.75;20.95;;;4.50;99.90;;;;;;5053188;28;20163;-78
2022/12/05 04:47:42;;;;;;;50.88;22.45;;;4.30;99.90;;;;;;5053474;28;20207;-78
2022/12/05 04:50:10;;;;;;;47.42;21.17;;;4.00;99.90;;;;;;5053769;28;20288;-78
2022/12/05 04:52:37;;;;;;;48.25;21.15;;;4.00;99.90;;;;;;5054122;28;20164;-78
2022/12/05 04:55:12;;;;;;;48.05;20.88;;;4.00;99.90;;;;;;5054204;28;20241;-79
2022/12/05 04:58:15;;;;;;;50.20;22.25;;;4.10;99.90;;;;;;5054052;28;20166;-78
2022/12/05 05:00:58;;;;;;;48.30;20.98;;;4.10;99.90;;;;;;5053217;28;20222;-78
2022/12/05 05:04:02;;;;;;;45.85;20.73;;;4.30;99.90;;;;;;5054111;28;20525;-78
2022/12/05 05:06:29;;;;;;;45.78;21.10;;;4.20;99.90;;;;;;5053817;28;20195;-78
2022/12/05 05:08:56;;;;;;;56.25;23.35;;;4.60;99.90;;;;;;5052379;28;20185;-80
2022/12/05 05:11:25;;;;;;;50.47;21.20;;;4.70;99.90;;;;;;5053717;28;20241;-80
2022/12/05 05:13:51;;;;;;;54.03;21.63;;;4.90;99.90;;;;;;5053206;28;20218;-80
2022/12/05 05:16:23;;;;;;;55.33;23.38;;;4.70;99.90;;;;;;5053598;28;20179;-82
2022/12/05 05:18:50;;;;;;;56.83;22.42;;;4.50;99.90;;;;;;5053323;28;20185;-80
2022/12/05 05:21:21;;;;;;;46.55;20.55;;;4.60;99.90;;;;;;5053223;28;20215;-79
2022/12/05 05:23:47;;;;;;;59.17;22.98;;;4.30;99.90;;;;;;5053675;28;20246;-79
2022/12/05 05:26:13;;;;;;;68.50;25.25;;;4.40;99.90;;;;;;5053819;28;20277;-79
2022/12/05 05:28:38;;;;;;;56.60;23.08;;;4.50;99.90;;;;;;5053856;28;20711;-78
2022/12/05 05:31:05;;;;;;;53.05;22.13;;;4.60;99.90;;;;;;5053823;28;20230;-79
2022/12/05 05:33:31;;;;;;;60.22;23.38;;;4.80;99.90;;;;;;5053650;28;20245;-78
2022/12/05 05:36:00;;;;;;;58.10;23.42;;;4.80;99.90;;;;;;5071945;28;20175;-79
2022/12/05 05:38:25;;;;;;;60.25;24.17;;;4.90;99.90;;;;;;5059862;28;20262;-79
2022/12/05 05:40:51;;;;;;;58.30;24.00;;;4.80;99.90;;;;;;5053040;28;20298;-79
2022/12/05 05:43:16;;;;;;;60.83;24.33;;;4.80;99.90;;;;;;5053077;28;20163;-79
2022/12/05 05:45:42;;;;;;;65.97;23.13;;;4.90;99.90;;;;;;5051863;28;20530;-79
2022/12/05 05:48:07;;;;;;;60.50;24.50;;;4.50;99.90;;;;;;5051750;28;20526;-79
2022/12/05 05:50:33;;;;;;;60.67;24.27;;;4.40;99.90;;;;;;5052799;28;20191;-79
2022/12/05 05:52:59;;;;;;;64.03;24.75;;;4.30;99.90;;;;;;5053256;28;20171;-79
2022/12/05 05:55:24;;;;;;;55.95;23.10;;;4.50;99.90;;;;;;5053053;28;20167;-79
2022/12/05 05:57:50;;;;;;;49.83;21.40;;;4.70;99.90;;;;;;5052018;28;20971;-80
2022/12/05 06:00:16;;;;;;;56.28;24.35;;;4.90;99.90;;;;;;5052725;28;20724;-79
2022/12/05 06:02:41;;;;;;;58.10;23.35;;;4.80;99.90;;;;;;5052954;28;20253;-79
2022/12/05 06:05:07;;;;;;;58.53;23.70;;;4.80;99.90;;;;;;5052764;28;20685;-79
2022/12/05 06:07:33;;;;;;;54.78;22.90;;;5.00;99.90;;;;;;5052400;28;20176;-79
2022/12/05 06:09:58;;;;;;;57.95;23.42;;;4.90;99.90;;;;;;5052724;28;20187;-80
2022/12/05 06:12:24;;;;;;;56.97;22.42;;;5.20;99.90;;;;;;5052011;28;20178;-79
2022/12/05 06:14:50;;;;;;;61.20;23.05;;;5.20;99.90;;;;;;5052630;28;20220;-79
2022/12/05 06:17:16;;;;;;;56.03;22.00;;;5.30;99.90;;;;;;5052413;28;20571;-79
2022/12/05 06:19:41;;;;;;;52.92;24.63;;;5.30;99.90;;;;;;5052397;28;20644;-78
2022/12/05 06:22:07;;;;;;;54.88;23.25;;;5.30;99.90;;;;;;5051269;28;20235;-78
2022/12/05 06:24:33;;;;;;;64.55;23.50;;;5.20;99.90;;;;;;5052298;28;20159;-78
2022/12/05 06:26:58;;;;;;;53.95;23.00;;;4.90;99.90;;;;;;5051164;28;20270;-79
2022/12/05 06:29:24;;;;;;;51.40;22.83;;;4.80;99.90;;;;;;5052529;28;20179;-78
2022/12/05 06:31:49;;;;;;;57.25;24.70;;;5.00;99.90;;;;;;5052542;28;20193;-79
2022/12/05 06:34:16;;;;;;;57.13;24.70;;;5.10;99.90;;;;;;5052133;28;20167;-79
2022/12/05 06:36:41;;;;;;;62.05;25.08;;;5.10;99.90;;;;;;5051707;28;20159;-79
2022/12/05 06:39:07;;;;;;;52.13;22.13;;;4.90;99.90;;;;;;5066755;22;20317;-79
2022/12/05 06:41:34;;;;;;;53.60;23.83;;;5.10;99.90;;;;;;5047241;28;20546;-79
2022/12/05 06:43:59;;;;;;;55.78;23.75;;;5.10;99.90;;;;;;5048522;28;20171;-77
2022/12/05 06:46:25;;;;;;;60.17;23.35;;;5.10;99.90;;;;;;5048263;28;20661;-78
2022/12/05 06:48:56;;;;;;;65.13;24.63;;;5.00;99.90;;;;;;5048248;28;20721;-80
2022/12/05 06:51:22;;;;;;;58.35;24.30;;;5.00;99.90;;;;;;5049526;28;20195;-82
2022/12/05 06:53:48;;;;;;;47.65;22.67;;;4.80;99.90;;;;;;5050518;28;20175;-80
2022/12/05 06:56:18;;;;;;;51.38;22.40;;;4.60;99.90;;;;;;5050118;28;20654;-81
2022/12/05 06:58:46;;;;;;;44.70;23.08;;;4.60;99.90;;;;;;5052968;28;20695;-93
2022/12/05 07:03:58;;;;;;;53.22;23.02;;;4.60;99.90;;;;;;5031247;28;20258;-85
2022/12/05 07:06:24;;;;;;;57.40;23.58;;;4.50;99.90;;;;;;5028607;28;20214;-90
2022/12/05 07:08:50;;;;;;;59.42;23.70;;;4.80;99.90;;;;;;5032861;28;20176;-85
2022/12/05 07:11:15;;;;;;;55.72;24.52;;;4.70;99.90;;;;;;5050434;28;20198;-88
2022/12/05 07:13:41;;;;;;;47.90;20.55;;;4.80;99.90;;;;;;5034705;28;20203;-81
2022/12/05 07:16:07;;;;;;;56.53;24.58;;;5.00;99.90;;;;;;5034062;28;20271;-83
2022/12/05 07:18:33;;;;;;;54.70;22.73;;;5.00;99.90;;;;;;5031727;28;20199;-81
2022/12/05 07:21:01;;;;;;;54.60;23.77;;;5.00;99.90;;;;;;5033673;28;20241;-79
2022/12/05 07:23:27;;;;;;;61.83;23.27;;;5.00;99.90;;;;;;5032210;28;20245;-78
2022/12/05 07:25:53;;;;;;;55.45;24.38;;;5.20;99.90;;;;;;5033281;28;20164;-82
2022/12/05 07:28:19;;;;;;;55.47;23.23;;;5.30;99.90;;;;;;5032003;28;20927;-80
2022/12/05 07:30:44;;;;;;;53.88;24.58;;;5.00;99.90;;;;;;5048269;28;20192;-79
2022/12/05 07:33:10;;;;;;;64.35;25.38;;;5.10;99.90;;;;;;5032819;28;20172;-79
2022/12/05 07:35:37;;;;;;;56.67;23.00;;;5.10;99.90;;;;;;5032529;28;20478;-79
2022/12/05 07:38:02;;;;;;;55.03;24.27;;;5.10;99.90;;;;;;5033082;28;20206;-87
2022/12/05 07:40:28;;;;;;;69.03;24.23;;;5.00;99.90;;;;;;5032260;28;20786;-81
2022/12/05 07:42:54;;;;;;;65.38;24.08;;;5.10;99.90;;;;;;5032743;28;20184;-88
2022/12/05 07:45:20;;;;;;;68.47;24.25;;;5.40;99.90;;;;;;5025724;28;20168;-79
2022/12/05 07:47:46;;;;;;;57.72;23.88;;;5.40;99.90;;;;;;5031512;28;20482;-80
2022/12/05 07:50:12;;;;;;;53.22;23.30;;;5.40;99.90;;;;;;5030481;28;20211;-79
2022/12/05 07:52:38;;;;;;;58.40;25.27;;;5.10;99.90;;;;;;5030736;28;20267;-78
2022/12/05 07:55:04;;;;;;;66.45;24.02;;;5.20;99.90;;;;;;5031497;28;20596;-79
2022/12/05 07:57:30;;;;;;;65.90;23.83;;;5.20;99.90;;;;;;5032783;28;20171;-81
2022/12/05 07:59:56;;;;;;;62.80;23.80;;;5.30;99.90;;;;;;5047094;28;20160;-86
2022/12/05 08:02:22;;;;;;;66.40;24.95;;;5.20;99.90;;;;;;5046563;28;20243;-83
2022/12/05 08:04:47;;;;;;;59.05;23.60;;;5.10;99.90;;;;;;5031360;28;20680;-80
2022/12/05 08:07:13;;;;;;;56.15;22.35;;;5.40;99.90;;;;;;5032897;28;20238;-80
2022/12/05 08:09:39;;;;;;;55.00;22.63;;;5.30;99.90;;;;;;5033172;28;20168;-80
2022/12/05 08:12:04;;;;;;;59.70;23.17;;;5.20;99.90;;;;;;5032403;28;20171;-84
2022/12/05 08:14:30;;;;;;;48.97;23.45;;;5.30;99.90;;;;;;5047597;28;20176;-87
2022/12/05 08:16:56;;;;;;;57.75;23.30;;;5.50;99.90;;;;;;5031743;28;20186;-88
2022/12/05 08:19:22;;;;;;;49.05;21.20;;;5.60;99.90;;;;;;5032588;28;20179;-83
2022/12/05 08:21:47;;;;;;;39.25;20.33;;;5.50;99.90;;;;;;5031307;28;20269;-83
2022/12/05 08:24:13;;;;;;;42.63;20.58;;;5.50;99.90;;;;;;5031536;28;20167;-79
2022/12/05 08:26:39;;;;;;;42.97;20.15;;;5.30;99.90;;;;;;5031496;28;20200;-78
2022/12/05 08:29:07;;;;;;;37.70;19.15;;;5.30;99.90;;;;;;5031045;28;20507;-78
2022/12/05 08:31:37;;;;;;;41.17;18.85;;;5.40;99.90;;;;;;5030693;28;20210;-78
2022/12/05 08:34:03;;;;;;;40.75;19.73;;;5.60;99.90;;;;;;5030488;28;20164;-77
2022/12/05 08:36:29;;;;;;;38.60;18.35;;;5.00;99.90;;;;;;5031009;28;20239;-78
2022/12/05 08:38:57;;;;;;;44.80;19.77;;;5.00;99.90;;;;;;5031075;28;20172;-85
2022/12/05 08:41:27;;;;;;;33.92;17.25;;;5.00;99.90;;;;;;5031096;28;20219;-78
2022/12/05 08:43:56;;;;;;;40.17;18.73;;;5.20;99.90;;;;;;5031503;28;20236;-78
2022/12/05 08:46:22;;;;;;;38.05;18.27;;;5.40;99.90;;;;;;5031446;28;20171;-78
2022/12/05 08:48:48;;;;;;;38.08;17.45;;;5.60;99.90;;;;;;5030788;28;20190;-78
2022/12/05 08:51:14;;;;;;;40.67;17.83;;;5.60;99.90;;;;;;5030376;28;20191;-78
2022/12/05 08:53:40;;;;;;;40.80;18.50;;;5.50;99.90;;;;;;5030200;28;20284;-78
2022/12/05 08:56:07;;;;;;;29.00;17.20;;;5.40;99.90;;;;;;5045824;28;20210;-81
2022/12/05 08:58:34;;;;;;;33.75;16.42;;;5.70;99.90;;;;;;5045166;28;20164;-80
2022/12/05 09:01:11;;;;;;;33.50;17.70;;;5.80;99.90;;;;;;5045987;28;20211;-83
2022/12/05 09:03:38;;;;;;;28.95;16.35;;;5.90;99.90;;;;;;5044873;28;20218;-83
2022/12/05 09:06:06;;;;;;;29.67;14.57;;;5.90;99.90;;;;;;5029826;28;20168;-80
2022/12/05 09:08:32;;;;;;;26.95;14.50;;;5.90;99.90;;;;;;5028815;28;20168;-78
2022/12/05 09:10:57;;;;;;;30.35;15.35;;;5.90;99.90;;;;;;5026938;28;20647;-78
2022/12/05 09:13:23;;;;;;;28.10;15.13;;;5.90;99.90;;;;;;5027256;28;20310;-79
2022/12/05 09:15:48;;;;;;;27.52;15.57;;;5.90;99.90;;;;;;5026651;28;20184;-78
2022/12/05 09:18:14;;;;;;;27.90;15.27;;;5.90;99.90;;;;;;5030107;28;20160;-79
2022/12/05 09:20:40;;;;;;;29.55;15.05;;;5.70;99.90;;;;;;5029271;28;20226;-78
2022/12/05 09:23:06;;;;;;;23.85;13.48;;;5.80;99.90;;;;;;5029121;28;20180;-78
2022/12/05 09:25:31;;;;;;;24.00;13.35;;;5.90;99.90;;;;;;5030721;28;20175;-78
2022/12/05 09:27:57;;;;;;;26.70;14.70;;;5.80;99.90;;;;;;5031081;28;20581;-77
2022/12/05 09:30:22;;;;;;;29.42;13.68;;;6.00;99.90;;;;;;5030128;28;20253;-78
2022/12/05 09:32:48;;;;;;;28.20;15.40;;;6.00;99.90;;;;;;5030166;28;20485;-78
2022/12/05 09:35:14;;;;;;;27.00;14.18;;;6.10;99.90;;;;;;5031772;28;20182;-86
2022/12/05 09:37:39;;;;;;;26.83;15.02;;;6.30;99.90;;;;;;5033473;28;20175;-80
2022/12/05 09:40:06;;;;;;;24.25;13.13;;;6.30;99.90;;;;;;5033075;28;20571;-89
2022/12/05 09:42:39;;;;;;;22.85;14.52;;;6.10;99.90;;;;;;5033254;28;20168;-82
2022/12/05 09:45:25;;;;;;;21.92;13.40;;;6.10;99.90;;;;;;5033814;28;20202;-79
2022/12/05 09:47:58;;;;;;;24.02;12.85;;;5.90;99.90;;;;;;5048552;28;20176;-82
2022/12/05 09:50:27;;;;;;;25.77;14.10;;;5.90;99.90;;;;;;5033252;28;20270;-79
2022/12/05 09:53:08;;;;;;;23.40;14.10;;;6.10;99.90;;;;;;5033358;28;20233;-87
2022/12/05 09:55:43;;;;;;;28.85;14.63;;;5.90;99.90;;;;;;5033127;28;20176;-79
2022/12/05 09:58:45;;;;;;;24.20;13.93;;;6.10;99.90;;;;;;5048921;28;20179;-78
2022/12/05 10:01:32;;;;;;;28.42;13.63;;;5.90;99.90;;;;;;5033189;28;20318;-78
2022/12/05 10:04:16;;;;;;;19.42;12.05;;;5.90;99.90;;;;;;5032673;28;20310;-79
2022/12/05 10:07:16;;;;;;;24.83;13.25;;;6.00;99.90;;;;;;5033051;28;20175;-80
2022/12/05 10:10:14;;;;;;;20.58;12.70;;;6.00;99.90;;;;;;5033050;28;20168;-80
2022/12/05 10:12:51;;;;;;;19.50;11.93;;;6.10;99.90;;;;;;5029464;28;20190;-77
2022/12/05 10:15:42;;;;;;;21.00;12.63;;;6.10;99.90;;;;;;5031341;28;20167;-77
2022/12/05 10:18:14;;;;;;;15.88;11.57;;;6.20;99.90;;;;;;5032885;28;20490;-77
2022/12/05 10:21:07;;;;;;;23.73;12.95;;;6.20;99.90;;;;;;5030781;28;20234;-85
2022/12/05 10:23:48;;;;;;;23.02;12.68;;;6.20;99.90;;;;;;5010147;28;20198;-76
2022/12/05 10:26:15;;;;;;;22.92;13.02;;;6.10;99.90;;;;;;5017044;28;20687;-77
2022/12/05 10:28:51;;;;;;;17.85;11.88;;;6.20;99.90;;;;;;5029139;28;20179;-78
2022/12/05 10:31:22;;;;;;;18.60;11.07;;;6.30;99.90;;;;;;5031290;28;20678;-79
2022/12/05 10:33:57;;;;;;;20.00;12.05;;;6.60;99.90;;;;;;5031342;28;20211;-78
2022/12/05 10:36:24;;;;;;;17.52;12.05;;;6.60;99.90;;;;;;5030905;28;20186;-77
2022/12/05 10:38:49;;;;;;;25.50;12.80;;;6.70;99.90;;;;;;5030726;28;20179;-77
2022/12/05 10:41:16;;;;;;;31.33;14.15;;;6.60;99.90;;;;;;5030770;28;20306;-77
2022/12/05 10:43:44;;;;;;;20.48;11.65;;;6.80;99.90;;;;;;5031271;28;20246;-79
2022/12/05 10:46:12;;;;;;;21.50;12.82;;;6.70;99.90;;;;;;5030698;28;20179;-79
2022/12/05 10:48:40;;;;;;;20.15;12.63;;;6.60;99.90;;;;;;5030115;28;20159;-80
2022/12/05 10:51:10;;;;;;;21.15;11.07;;;6.70;99.90;;;;;;5030910;28;20191;-81
2022/12/05 10:53:40;;;;;;;20.88;13.02;;;6.60;99.90;;;;;;5031932;28;20201;-79
2022/12/05 10:56:45;;;;;;;20.52;11.55;;;6.50;99.90;;;;;;5031939;28;20237;-80
2022/12/05 10:59:17;;;;;;;20.42;11.95;;;6.40;99.90;;;;;;5031144;28;20163;-79
2022/12/05 11:01:57;;;;;;;18.90;12.30;;;6.50;99.90;;;;;;5031533;28;20215;-78
2022/12/05 11:04:30;;;;;;;20.85;11.70;;;6.00;99.90;;;;;;5031743;28;20234;-79
2022/12/05 11:07:01;;;;;;;17.17;10.95;;;5.90;99.90;;;;;;5030741;28;20176;-79
2022/12/05 11:09:29;;;;;;;23.67;12.18;;;5.70;99.90;;;;;;5031269;28;20187;-79
2022/12/05 11:12:04;;;;;;;18.63;11.95;;;5.70;99.90;;;;;;5031111;28;20266;-80
2022/12/05 11:14:32;;;;;;;21.77;12.52;;;5.70;99.90;;;;;;5032428;28;20206;-79
2022/12/05 11:16:59;;;;;;;19.17;11.90;;;5.60;99.90;;;;;;5032307;28;20172;-81
2022/12/05 11:19:29;;;;;;;22.00;10.95;;;5.50;99.90;;;;;;5031014;28;20202;-80
2022/12/05 11:21:55;;;;;;;18.95;10.85;;;5.40;99.90;;;;;;5031994;28;20214;-79
2022/12/05 11:24:28;;;;;;;24.13;11.75;;;5.50;99.90;;;;;;5047547;28;20172;-81
2022/12/05 11:26:56;;;;;;;15.05;9.60;;;5.70;99.90;;;;;;5047336;28;20226;-79
2022/12/05 11:29:31;;;;;;;17.10;10.57;;;5.40;99.90;;;;;;5032497;28;20172;-79
2022/12/05 11:31:57;;;;;;;16.05;11.75;;;5.40;99.90;;;;;;5031384;28;20643;-83
2022/12/05 11:34:34;;;;;;;20.20;11.00;;;5.80;99.90;;;;;;5047660;28;20206;-78
2022/12/05 11:37:13;;;;;;;17.60;11.45;;;5.70;99.90;;;;;;5031806;28;20209;-78
2022/12/05 11:39:39;;;;;;;16.35;10.57;;;5.80;99.90;;;;;;5031861;28;20195;-78
2022/12/05 11:42:23;;;;;;;18.75;11.68;;;5.90;99.90;;;;;;5031600;28;20247;-79
2022/12/05 11:45:26;;;;;;;16.50;11.85;;;5.90;99.90;;;;;;5032092;28;20172;-79
2022/12/05 11:47:51;;;;;;;18.73;11.75;;;5.80;99.90;;;;;;5030632;28;20182;-79
2022/12/05 11:50:44;;;;;;;19.50;10.80;;;5.60;99.90;;;;;;5025465;28;20546;-78
2022/12/05 11:54:13;;;;;;;21.13;12.05;;;5.70;99.90;;;;;;5022184;28;20234;-80
2022/12/05 11:56:53;;;;;;;18.10;11.38;;;5.70;99.90;;;;;;4956068;29;20170;-78
2022/12/05 11:59:33;;;;;;;14.80;11.25;;;5.40;99.90;;;;;;4955251;29;20667;-80
2022/12/05 12:02:28;;;;;;;19.08;12.38;;;5.70;99.90;;;;;;5021509;28;20312;-80
2022/12/05 12:05:16;;;;;;;15.05;11.07;;;5.80;99.90;;;;;;5035402;28;20168;-80
2022/12/05 12:08:02;;;;;;;17.98;11.88;;;5.80;99.90;;;;;;5050406;28;20190;-80
2022/12/05 12:10:35;;;;;;;18.75;11.65;;;5.60;99.90;;;;;;5034614;28;20219;-87
2022/12/05 12:13:23;;;;;;;15.70;11.13;;;5.60;99.90;;;;;;5032852;28;20172;-88
2022/12/05 12:15:48;;;;;;;19.55;10.93;;;5.50;99.90;;;;;;5035500;28;20203;-80
2022/12/05 12:18:34;;;;;;;15.73;11.40;;;5.80;99.90;;;;;;5034991;28;20192;-78
2022/12/05 12:21:27;;;;;;;18.10;11.65;;;6.00;99.90;;;;;;5033307;28;20211;-88
2022/12/05 12:24:26;;;;;;;20.15;11.70;;;6.20;99.90;;;;;;5014328;28;20169;-84
2022/12/05 12:27:00;;;;;;;18.52;12.95;;;6.00;99.90;;;;;;5015954;28;20168;-80
2022/12/05 12:30:00;;;;;;;22.33;12.93;;;5.90;99.90;;;;;;5023494;28;20172;-82
2022/12/05 12:32:57;;;;;;;18.75;11.32;;;5.90;99.90;;;;;;5048747;28;20194;-83
2022/12/05 12:35:42;;;;;;;14.45;10.88;;;6.00;99.90;;;;;;5032987;28;20221;-83
2022/12/05 12:38:59;;;;;;;16.58;12.10;;;6.10;99.90;;;;;;5035262;28;20178;-88
2022/12/05 12:41:37;;;;;;;16.85;11.52;;;6.00;99.90;;;;;;4977402;28;20220;-80
2022/12/05 12:44:24;;;;;;;17.90;11.35;;;6.30;99.90;;;;;;5029374;28;20211;-80
2022/12/05 12:46:58;;;;;;;14.55;11.00;;;5.90;99.90;;;;;;5034915;28;20362;-80
2022/12/05 12:49:38;;;;;;;14.48;10.73;;;5.80;99.90;;;;;;5036139;28;20532;-87
2022/12/05 12:52:12;;;;;;;15.57;11.60;;;6.00;99.90;;;;;;5035347;28;20188;-79
2022/12/05 12:55:15;;;;;;;23.52;12.18;;;6.00;99.90;;;;;;5033974;28;20172;-79
2022/12/05 12:57:46;;;;;;;16.48;11.60;;;5.80;99.90;;;;;;5034573;28;20652;-77
2022/12/05 13:00:38;;;;;;;18.60;11.10;;;5.90;99.90;;;;;;5034389;28;20194;-80
2022/12/05 13:03:04;;;;;;;17.13;11.70;;;6.00;99.90;;;;;;5034305;28;20183;-79
2022/12/05 13:05:37;;;;;;;19.25;11.60;;;6.10;99.90;;;;;;5034093;28;20172;-79
2022/12/05 13:08:27;;;;;;;19.17;11.57;;;6.00;99.90;;;;;;5034513;28;20191;-78